Time;durP1;ratioP1;P1;durP2;ratioP2;P2;SDS_P1;SDS_P2;PMS_P1;PMS_P2;Temp;Humidity;BMP_temperature;BMP_pressure;BME280_temperature;BME280_humidity;BME280_pressure;Samples;Min_cycle;Max_cycle;Signal;HPM_P1;HPM_P2
2022/02/16 00:01:13;;;;;;;;;;;;;;;5.78;54.12;101102.48;117406;1185;21836;-54
2022/02/16 00:03:41;;;;;;;;;;;;;;;5.75;54.13;101094.92;118073;1185;21826;-57
2022/02/16 00:06:09;;;;;;;;;;;;;;;5.74;54.30;101090.75;117407;1182;21837;-57
2022/02/16 00:08:38;;;;;;;;;;;;;;;5.72;54.36;101088.09;117363;1185;21836;-55
2022/02/16 00:11:06;;;;;;;;;;;;;;;5.71;54.45;101093.82;117270;1185;22602;-57
2022/02/16 00:13:35;;;;;;;;;;;;;;;5.70;54.27;101099.39;117317;1186;21844;-57
2022/02/16 00:16:08;;;;;;;;;;;;;;;5.70;54.27;101092.05;117386;1185;21836;-58
2022/02/16 00:18:36;;;;;;;;;;;;;;;5.72;54.60;101089.84;117397;1185;23544;-57
2022/02/16 00:21:05;;;;;;;;;;;;;;;5.74;53.95;101081.32;117392;1185;21834;-56
2022/02/16 00:23:34;;;;;;;;;;;;;;;5.75;54.18;101075.95;117460;1185;22606;-55
2022/02/16 00:26:05;;;;;;;;;;;;;;;5.76;54.36;101066.38;117359;1183;21867;-57
2022/02/16 00:28:34;;;;;;;;;;;;;;;5.76;54.36;101062.89;117418;1186;21827;-57
2022/02/16 00:31:02;;;;;;;;;;;;;;;5.75;54.56;101063.58;117348;1182;21843;-55
2022/02/16 00:33:30;;;;;;;;;;;;;;;5.74;54.29;101062.52;117359;1186;21891;-57
2022/02/16 00:36:00;;;;;;;;;;;;;;;5.73;54.17;101059.91;117430;1186;22893;-57
2022/02/16 00:38:28;;;;;;;;;;;;;;;5.72;54.25;101055.88;117381;1185;21839;-57
2022/02/16 00:40:56;;;;;;;;;;;;;;;5.70;54.59;101055.31;117275;1188;21848;-57
2022/02/16 00:43:24;;;;;;;;;;;;;;;5.69;54.42;101050.79;117329;1185;21826;-55
2022/02/16 00:45:52;;;;;;;;;;;;;;;5.70;54.54;101048.52;117427;1185;21847;-57
2022/02/16 00:48:21;;;;;;;;;;;;;;;5.71;54.37;101050.27;117407;1186;21846;-58
2022/02/16 00:50:49;;;;;;;;;;;;;;;5.70;54.53;101048.16;117379;1185;21843;-58
2022/02/16 00:53:17;;;;;;;;;;;;;;;5.70;54.41;101048.87;117355;1185;21836;-57
2022/02/16 00:55:46;;;;;;;;;;;;;;;5.70;54.42;101049.05;117471;1182;21839;-57
2022/02/16 00:58:14;;;;;;;;;;;;;;;5.71;54.41;101045.23;117411;1185;21829;-54
2022/02/16 01:00:42;;;;;;;;;;;;;;;5.71;54.23;101044.20;117461;1185;21835;-57
2022/02/16 01:03:10;;;;;;;;;;;;;;;5.71;54.38;101039.30;117412;1185;21897;-56
2022/02/16 01:05:38;;;;;;;;;;;;;;;5.72;54.44;101039.33;117228;1186;21841;-55
2022/02/16 01:08:07;;;;;;;;;;;;;;;5.72;54.60;101034.45;117437;1185;21836;-55
2022/02/16 01:10:36;;;;;;;;;;;;;;;5.72;54.62;101030.80;117375;1182;22690;-57
2022/02/16 01:13:04;;;;;;;;;;;;;;;5.72;54.71;101028.71;117384;1186;21836;-55
2022/02/16 01:15:34;;;;;;;;;;;;;;;5.70;54.56;101024.49;117410;1186;21835;-57
2022/02/16 01:18:02;;;;;;;;;;;;;;;5.70;54.94;101021.00;117424;1185;21838;-57
2022/02/16 01:20:31;;;;;;;;;;;;;;;5.70;54.51;101018.58;117409;1183;22701;-55
2022/02/16 01:22:59;;;;;;;;;;;;;;;5.70;54.82;101019.79;117404;1185;21828;-55
2022/02/16 01:25:27;;;;;;;;;;;;;;;5.70;54.80;101018.57;117328;1186;21829;-56
2022/02/16 01:27:55;;;;;;;;;;;;;;;5.71;54.96;101012.67;117383;1185;22928;-55
2022/02/16 01:30:23;;;;;;;;;;;;;;;5.73;54.86;101014.63;117371;1185;21848;-55
2022/02/16 01:32:51;;;;;;;;;;;;;;;5.75;54.92;101008.72;117390;1185;21862;-55
2022/02/16 01:35:19;;;;;;;;;;;;;;;5.76;54.88;101008.22;117449;1185;23708;-57
2022/02/16 01:37:47;;;;;;;;;;;;;;;5.78;54.86;101009.65;117327;1185;22908;-54
2022/02/16 01:40:15;;;;;;;;;;;;;;;5.80;54.84;101009.17;117401;1185;21960;-57
2022/02/16 01:42:43;;;;;;;;;;;;;;;5.83;54.82;101008.52;117422;1186;21838;-57
2022/02/16 01:45:11;;;;;;;;;;;;;;;5.86;54.80;101006.13;117331;1182;21843;-55
2022/02/16 01:47:39;;;;;;;;;;;;;;;5.88;54.90;101002.00;117336;1185;21829;-55
2022/02/16 01:50:07;;;;;;;;;;;;;;;5.90;54.92;101004.46;117376;1185;23417;-56
2022/02/16 01:52:35;;;;;;;;;;;;;;;5.94;55.00;101007.66;117368;1185;21918;-55
2022/02/16 01:55:04;;;;;;;;;;;;;;;6.00;55.18;101010.72;117444;1185;22704;-55
2022/02/16 01:57:34;;;;;;;;;;;;;;;6.06;55.26;101008.06;117437;1187;21829;-57
2022/02/16 02:00:02;;;;;;;;;;;;;;;6.11;55.19;101008.85;117433;1185;21839;-55
2022/02/16 02:02:33;;;;;;;;;;;;;;;6.16;54.88;101005.63;117440;1185;22909;-55
2022/02/16 02:05:02;;;;;;;;;;;;;;;6.21;55.10;101008.12;117382;1185;21939;-56
2022/02/16 02:07:30;;;;;;;;;;;;;;;6.25;55.22;101000.17;117351;1182;21834;-58
2022/02/16 02:09:59;;;;;;;;;;;;;;;6.30;55.50;100994.50;117409;1185;21838;-57
2022/02/16 02:12:27;;;;;;;;;;;;;;;6.35;55.04;100994.58;117404;1183;24133;-58
2022/02/16 02:14:56;;;;;;;;;;;;;;;6.39;55.33;100992.55;117390;1186;21828;-56
2022/02/16 02:17:24;;;;;;;;;;;;;;;6.43;55.17;100999.91;117357;1185;21834;-56
2022/02/16 02:19:52;;;;;;;;;;;;;;;6.45;55.10;101002.38;117385;1183;21839;-58
2022/02/16 02:22:20;;;;;;;;;;;;;;;6.48;55.06;100999.98;117365;1186;22892;-56
2022/02/16 02:24:48;;;;;;;;;;;;;;;6.50;55.01;100997.23;117404;1186;22297;-58
2022/02/16 02:27:16;;;;;;;;;;;;;;;6.54;55.18;100997.99;117459;1185;21843;-56
2022/02/16 02:29:44;;;;;;;;;;;;;;;6.61;54.76;100996.70;117410;1185;21848;-58
2022/02/16 02:32:15;;;;;;;;;;;;;;;6.65;54.82;100996.38;117430;1186;21839;-56
2022/02/16 02:34:43;;;;;;;;;;;;;;;6.68;55.08;100999.73;117435;1183;21826;-58
2022/02/16 02:37:11;;;;;;;;;;;;;;;6.68;55.08;100994.68;117423;1185;23430;-58
2022/02/16 02:39:39;;;;;;;;;;;;;;;6.70;54.77;100994.36;117456;1186;21838;-58
2022/02/16 02:42:08;;;;;;;;;;;;;;;6.71;55.00;100990.88;117465;1188;24131;-58
2022/02/16 02:44:35;;;;;;;;;;;;;;;6.73;54.84;100995.61;117400;1185;21965;-58
2022/02/16 02:47:04;;;;;;;;;;;;;;;6.75;55.10;100995.98;117386;1185;21841;-59
2022/02/16 02:49:32;;;;;;;;;;;;;;;6.77;55.20;100993.59;117359;1183;22786;-55
2022/02/16 02:52:00;;;;;;;;;;;;;;;6.79;55.15;100989.08;117373;1185;21842;-56
2022/02/16 02:54:29;;;;;;;;;;;;;;;6.82;54.96;100987.39;117372;1183;21967;-57
2022/02/16 02:56:57;;;;;;;;;;;;;;;6.82;55.23;100986.34;117333;1187;23759;-57
2022/02/16 02:59:26;;;;;;;;;;;;;;;6.84;55.08;100986.16;117407;1186;21874;-57
2022/02/16 03:01:54;;;;;;;;;;;;;;;6.86;54.99;100985.67;117413;1185;22452;-55
2022/02/16 03:04:22;;;;;;;;;;;;;;;6.88;55.10;100984.82;117378;1183;21835;-56
2022/02/16 03:06:50;;;;;;;;;;;;;;;6.89;55.09;100977.69;117502;1186;22896;-57
2022/02/16 03:09:20;;;;;;;;;;;;;;;6.87;55.13;100974.52;117368;1186;23307;-58
2022/02/16 03:11:48;;;;;;;;;;;;;;;6.88;55.53;100971.39;117405;1186;21835;-56
2022/02/16 03:14:16;;;;;;;;;;;;;;;6.91;55.33;100975.79;117446;1186;21835;-56
2022/02/16 03:16:46;;;;;;;;;;;;;;;6.93;55.41;100974.23;117385;1182;23580;-55
2022/02/16 03:19:14;;;;;;;;;;;;;;;6.94;55.50;100971.13;117445;1186;21891;-57
2022/02/16 03:21:43;;;;;;;;;;;;;;;6.95;55.42;100968.34;117272;1182;21839;-57
2022/02/16 03:24:11;;;;;;;;;;;;;;;6.96;55.46;100964.70;117361;1182;22291;-55
2022/02/16 03:26:39;;;;;;;;;;;;;;;6.98;55.51;100963.66;117398;1183;21843;-56
2022/02/16 03:29:07;;;;;;;;;;;;;;;6.99;55.16;100961.06;117427;1182;23433;-58
2022/02/16 03:31:35;;;;;;;;;;;;;;;7.01;55.28;100962.84;117412;1186;21829;-58
2022/02/16 03:34:03;;;;;;;;;;;;;;;7.02;55.36;100961.62;117481;1186;21877;-58
2022/02/16 03:36:31;;;;;;;;;;;;;;;7.03;55.39;100960.59;117445;1185;22900;-56
2022/02/16 03:38:59;;;;;;;;;;;;;;;7.03;55.46;100957.63;117388;1186;21848;-58
2022/02/16 03:41:27;;;;;;;;;;;;;;;7.03;55.58;100958.67;117394;1186;21827;-56
2022/02/16 03:43:57;;;;;;;;;;;;;;;7.04;55.38;100954.31;117299;1185;21833;-56
2022/02/16 03:46:26;;;;;;;;;;;;;;;7.05;55.30;100954.66;117411;1185;23537;-57
2022/02/16 03:48:54;;;;;;;;;;;;;;;7.06;55.51;100948.92;117385;1186;21836;-58
2022/02/16 03:51:24;;;;;;;;;;;;;;;7.08;55.50;100946.33;117396;1186;22626;-59
2022/02/16 03:53:54;;;;;;;;;;;;;;;7.07;55.68;100941.25;117283;1186;22929;-59
2022/02/16 03:56:22;;;;;;;;;;;;;;;7.07;55.69;100937.23;117397;1183;21839;-58
2022/02/16 03:58:50;;;;;;;;;;;;;;;7.10;55.61;100932.38;117463;1186;24111;-59
2022/02/16 04:01:18;;;;;;;;;;;;;;;7.08;55.62;100934.45;117352;1189;22908;-57
2022/02/16 04:03:46;;;;;;;;;;;;;;;7.10;55.69;100933.61;117357;1186;21833;-56
2022/02/16 04:06:15;;;;;;;;;;;;;;;7.14;55.46;100932.43;117310;1186;21836;-59
2022/02/16 04:08:44;;;;;;;;;;;;;;;7.16;55.46;100930.18;117366;1186;21829;-59
2022/02/16 04:11:12;;;;;;;;;;;;;;;7.16;55.47;100930.00;117384;1185;21835;-58
2022/02/16 04:13:43;;;;;;;;;;;;;;;7.16;55.67;100924.95;117420;1182;23445;-57
2022/02/16 04:16:11;;;;;;;;;;;;;;;7.17;55.48;100926.87;117418;1182;23054;-56
2022/02/16 04:18:40;;;;;;;;;;;;;;;7.18;55.59;100932.65;117359;1186;21837;-59
2022/02/16 04:21:08;;;;;;;;;;;;;;;7.19;55.64;100931.26;117356;1186;24132;-58
2022/02/16 04:23:36;;;;;;;;;;;;;;;7.21;55.64;100925.69;117357;1186;23977;-55
2022/02/16 04:26:06;;;;;;;;;;;;;;;7.21;55.73;100923.61;117372;1182;21835;-57
2022/02/16 04:28:37;;;;;;;;;;;;;;;7.22;55.74;100925.36;117309;1185;21860;-55
2022/02/16 04:31:05;;;;;;;;;;;;;;;7.20;55.91;100927.27;117322;1182;23436;-58
2022/02/16 04:33:33;;;;;;;;;;;;;;;7.19;55.63;100926.20;117264;1183;21836;-58
2022/02/16 04:36:01;;;;;;;;;;;;;;;7.20;55.63;100926.73;119250;1185;21838;-58
2022/02/16 04:38:30;;;;;;;;;;;;;;;7.25;55.67;100928.20;117426;1182;21829;-59
2022/02/16 04:40:58;;;;;;;;;;;;;;;7.26;55.82;100927.34;117349;1185;23413;-57
2022/02/16 04:43:26;;;;;;;;;;;;;;;7.29;55.62;100920.37;117305;1185;21838;-56
2022/02/16 04:45:55;;;;;;;;;;;;;;;7.31;55.83;100923.35;117346;1185;21918;-58
2022/02/16 04:48:23;;;;;;;;;;;;;;;7.32;55.58;100919.86;117365;1186;21851;-56
2022/02/16 04:50:51;;;;;;;;;;;;;;;7.33;55.84;100920.39;117328;1186;21828;-57
2022/02/16 04:53:19;;;;;;;;;;;;;;;7.34;55.88;100918.84;117286;1182;21848;-57
2022/02/16 04:55:47;;;;;;;;;;;;;;;7.34;55.87;100913.25;117291;1186;21838;-58
2022/02/16 04:58:16;;;;;;;;;;;;;;;7.35;55.88;100910.30;117397;1186;21826;-57
2022/02/16 05:00:46;;;;;;;;;;;;;;;7.39;55.61;100912.79;117295;1185;23446;-55
2022/02/16 05:03:14;;;;;;;;;;;;;;;7.40;55.66;100912.80;117353;1186;21863;-55
2022/02/16 05:05:42;;;;;;;;;;;;;;;7.40;55.66;100909.81;117353;1186;21828;-56
2022/02/16 05:08:10;;;;;;;;;;;;;;;7.42;55.63;100910.54;117356;1186;21835;-55
2022/02/16 05:10:39;;;;;;;;;;;;;;;7.46;55.62;100914.77;117355;1186;23417;-56
2022/02/16 05:13:07;;;;;;;;;;;;;;;7.49;55.60;100918.63;117252;1186;24123;-57
2022/02/16 05:15:36;;;;;;;;;;;;;;;7.51;55.64;100921.61;117448;1183;21844;-58
2022/02/16 05:18:04;;;;;;;;;;;;;;;7.52;55.53;100924.08;117298;1186;22997;-57
2022/02/16 05:20:32;;;;;;;;;;;;;;;7.55;55.59;100925.84;117372;1185;24252;-56
2022/02/16 05:23:04;;;;;;;;;;;;;;;7.58;55.65;100936.70;117379;1185;21841;-58
2022/02/16 05:25:32;;;;;;;;;;;;;;;7.54;55.67;100939.98;117289;1185;21880;-57
2022/02/16 05:28:01;;;;;;;;;;;;;;;7.55;55.84;100944.88;117706;1185;25781;-59
2022/02/16 05:30:30;;;;;;;;;;;;;;;7.55;55.71;100950.12;117317;1185;23419;-56
2022/02/16 05:32:58;;;;;;;;;;;;;;;7.57;55.58;100953.11;117348;1183;24110;-59
2022/02/16 05:35:26;;;;;;;;;;;;;;;7.57;55.90;100956.08;117271;1186;23515;-58
2022/02/16 05:37:54;;;;;;;;;;;;;;;7.58;55.69;100960.45;117351;1182;23541;-57
2022/02/16 05:40:22;;;;;;;;;;;;;;;7.60;55.82;100960.13;117350;1182;24119;-57
2022/02/16 05:42:50;;;;;;;;;;;;;;;7.63;55.69;100961.21;117299;1185;22324;-59
2022/02/16 05:45:19;;;;;;;;;;;;;;;7.65;55.65;100961.40;117301;1185;24131;-56
2022/02/16 05:47:49;;;;;;;;;;;;;;;7.67;55.82;100962.98;117342;1182;21838;-56
2022/02/16 05:50:17;;;;;;;;;;;;;;;7.68;55.84;100959.67;117286;1185;21845;-55
2022/02/16 05:52:45;;;;;;;;;;;;;;;7.70;55.81;100963.89;117298;1186;21838;-56
2022/02/16 05:55:13;;;;;;;;;;;;;;;7.72;55.80;100963.02;117327;1186;22789;-58
2022/02/16 05:57:42;;;;;;;;;;;;;;;7.73;55.92;100962.34;117358;1186;23448;-58
2022/02/16 06:00:11;;;;;;;;;;;;;;;7.75;55.69;100959.03;117365;1186;22853;-55
2022/02/16 06:02:39;;;;;;;;;;;;;;;7.76;55.74;100955.89;117274;1185;21835;-56
2022/02/16 06:05:08;;;;;;;;;;;;;;;7.78;55.67;100949.10;117327;1182;23535;-56
2022/02/16 06:07:36;;;;;;;;;;;;;;;7.80;56.00;100948.07;119443;1183;21785;-58
2022/02/16 06:10:05;;;;;;;;;;;;;;;7.82;55.93;100938.48;117660;1186;23655;-59
2022/02/16 06:12:40;;;;;;;;;;;;;;;7.83;55.95;100936.58;117332;1183;21845;-57
2022/02/16 06:15:09;;;;;;;;;;;;;;;7.85;55.85;100935.02;117309;1185;21836;-56
2022/02/16 06:17:38;;;;;;;;;;;;;;;7.87;55.74;100933.63;117360;1183;22908;-58
2022/02/16 06:20:06;;;;;;;;;;;;;;;7.90;56.01;100940.98;117307;1186;22960;-56
2022/02/16 06:22:36;;;;;;;;;;;;;;;7.90;55.88;100948.50;117405;1186;21839;-56
2022/02/16 06:25:05;;;;;;;;;;;;;;;7.91;55.94;100950.09;117379;1186;23484;-56
2022/02/16 06:27:35;;;;;;;;;;;;;;;7.93;55.98;100947.65;117333;1185;22632;-58
2022/02/16 06:30:04;;;;;;;;;;;;;;;7.95;55.95;100945.92;117412;1186;22636;-56
2022/02/16 06:32:37;;;;;;;;;;;;;;;7.97;56.05;100947.67;117268;1182;21939;-55
2022/02/16 06:35:05;;;;;;;;;;;;;;;8.00;55.85;100946.98;119412;1183;22506;-57
2022/02/16 06:37:45;;;;;;;;;;;;;;;8.02;55.90;100944.23;117381;1185;21881;-59
2022/02/16 06:40:14;;;;;;;;;;;;;;;8.03;56.11;100940.37;117369;1185;23662;-57
2022/02/16 06:42:42;;;;;;;;;;;;;;;8.04;56.08;100933.05;117425;1185;23419;-55
2022/02/16 06:45:12;;;;;;;;;;;;;;;8.06;56.02;100929.92;117307;1183;21866;-57
2022/02/16 06:47:41;;;;;;;;;;;;;;;8.09;56.07;100932.73;117373;1185;21829;-57
2022/02/16 06:50:09;;;;;;;;;;;;;;;8.10;56.06;100933.96;117319;1186;21957;-57
2022/02/16 06:52:37;;;;;;;;;;;;;;;8.12;56.08;100939.21;117327;1185;21961;-58
2022/02/16 06:55:06;;;;;;;;;;;;;;;8.13;56.21;100942.04;117353;1185;24113;-55
2022/02/16 06:57:34;;;;;;;;;;;;;;;8.13;56.13;100943.96;117357;1186;24669;-55
2022/02/16 07:00:04;;;;;;;;;;;;;;;8.14;56.16;100941.16;117376;1182;21898;-58
2022/02/16 07:02:45;;;;;;;;;;;;;;;8.17;56.36;100948.35;117319;1186;21839;-55
2022/02/16 07:05:14;;;;;;;;;;;;;;;8.18;56.25;100946.24;117343;1185;24116;-57
2022/02/16 07:07:42;;;;;;;;;;;;;;;8.19;56.24;100945.21;117343;1183;21945;-56
2022/02/16 07:10:10;;;;;;;;;;;;;;;8.20;56.29;100942.23;117348;1186;23439;-55
2022/02/16 07:12:39;;;;;;;;;;;;;;;8.21;56.37;100939.09;117276;1186;23416;-56
2022/02/16 07:15:11;;;;;;;;;;;;;;;8.23;56.42;100945.58;117305;1182;23416;-55
2022/02/16 07:17:40;;;;;;;;;;;;;;;8.24;56.33;100947.33;117313;1186;21833;-56
2022/02/16 07:20:09;;;;;;;;;;;;;;;8.25;56.43;100945.08;117417;1182;21837;-57
2022/02/16 07:22:47;;;;;;;;;;;;;;;8.26;56.61;100944.55;117228;1185;21881;-56
2022/02/16 07:25:19;;;;;;;;;;;;;;;8.25;56.58;100942.62;117335;1182;21839;-58
2022/02/16 07:28:12;;;;;;;;;;;;;;;8.28;56.57;100944.05;117347;1186;23474;-57
2022/02/16 07:30:40;;;;;;;;;;;;;;;8.30;56.69;100943.36;117378;1185;23433;-57
2022/02/16 07:33:08;;;;;;;;;;;;;;;8.32;56.61;100937.95;117441;1183;21839;-57
2022/02/16 07:35:36;;;;;;;;;;;;;;;8.34;56.55;100936.39;117302;1185;23439;-59
2022/02/16 07:38:05;;;;;;;;;;;;;;;8.36;56.67;100932.73;117378;1185;21838;-57
2022/02/16 07:40:34;;;;;;;;;;;;;;;8.39;56.67;100921.90;117428;1185;24135;-56
2022/02/16 07:43:02;;;;;;;;;;;;;;;8.41;56.60;100925.40;117398;1186;21854;-58
2022/02/16 07:45:31;;;;;;;;;;;;;;;8.44;56.68;100919.47;117298;1186;22600;-59
2022/02/16 07:48:00;;;;;;;;;;;;;;;8.47;56.65;100923.34;117394;1183;21829;-56
2022/02/16 07:50:30;;;;;;;;;;;;;;;8.49;56.80;100915.16;117306;1186;22879;-58
2022/02/16 07:53:01;;;;;;;;;;;;;;;8.51;56.81;100913.59;117330;1183;23527;-57
2022/02/16 07:55:32;;;;;;;;;;;;;;;8.53;56.92;100910.30;117373;1186;21898;-59
2022/02/16 07:58:02;;;;;;;;;;;;;;;8.55;56.86;100911.35;117258;1185;21829;-58
2022/02/16 08:00:33;;;;;;;;;;;;;;;8.59;56.88;100904.37;117360;1183;24202;-56
2022/02/16 08:03:01;;;;;;;;;;;;;;;8.64;56.75;100905.08;117316;1186;23465;-56
2022/02/16 08:05:29;;;;;;;;;;;;;;;8.68;56.90;100901.94;117370;1186;23047;-58
2022/02/16 08:07:57;;;;;;;;;;;;;;;8.75;56.92;100902.16;117402;1186;23413;-56
2022/02/16 08:10:26;;;;;;;;;;;;;;;8.83;57.03;100905.68;118239;1185;21889;-57
2022/02/16 08:12:56;;;;;;;;;;;;;;;8.87;56.96;100900.27;117339;1185;23535;-56
2022/02/16 08:15:24;;;;;;;;;;;;;;;8.94;56.90;100895.73;117343;1186;21829;-58
2022/02/16 08:17:53;;;;;;;;;;;;;;;9.00;56.94;100894.53;117414;1183;23631;-58
2022/02/16 08:20:21;;;;;;;;;;;;;;;9.04;56.95;100887.54;117341;1186;24133;-56
2022/02/16 08:22:50;;;;;;;;;;;;;;;9.08;57.02;100898.56;117378;1186;21838;-56
2022/02/16 08:25:18;;;;;;;;;;;;;;;9.11;57.03;100900.32;117335;1185;21820;-56
2022/02/16 08:27:47;;;;;;;;;;;;;;;9.12;56.97;100901.20;117331;1183;21840;-57
2022/02/16 08:30:14;;;;;;;;;;;;;;;9.15;57.21;100904.36;117378;1185;21839;-58
2022/02/16 08:32:43;;;;;;;;;;;;;;;9.19;57.01;100898.42;117433;1186;21839;-56
2022/02/16 08:35:11;;;;;;;;;;;;;;;9.21;56.88;100907.88;117426;1185;21833;-58
2022/02/16 08:37:40;;;;;;;;;;;;;;;9.20;57.00;100900.34;117328;1186;23637;-58
2022/02/16 08:40:10;;;;;;;;;;;;;;;9.21;56.91;100901.05;117369;1183;21848;-57
2022/02/16 08:42:39;;;;;;;;;;;;;;;9.21;56.89;100899.83;117355;1183;22799;-57
2022/02/16 08:45:07;;;;;;;;;;;;;;;9.21;57.00;100898.25;117371;1186;22907;-60
2022/02/16 08:47:37;;;;;;;;;;;;;;;9.22;56.97;100898.77;117354;1186;22909;-56
2022/02/16 08:50:05;;;;;;;;;;;;;;;9.26;57.03;100897.73;117324;1183;21838;-55
2022/02/16 08:52:34;;;;;;;;;;;;;;;9.29;57.08;100897.20;117439;1186;22930;-56
2022/02/16 08:55:03;;;;;;;;;;;;;;;9.30;56.99;100890.02;117240;1185;23534;-57
2022/02/16 08:57:31;;;;;;;;;;;;;;;9.32;57.01;100887.39;117367;1185;21842;-57
2022/02/16 08:59:59;;;;;;;;;;;;;;;9.36;57.10;100888.10;117368;1185;22791;-57
2022/02/16 09:02:27;;;;;;;;;;;;;;;9.37;57.03;100884.27;117298;1183;21896;-58
2022/02/16 09:04:55;;;;;;;;;;;;;;;9.42;57.14;100885.13;117391;1182;23440;-57
2022/02/16 09:07:30;;;;;;;;;;;;;;;9.44;57.02;100878.66;117372;1183;21823;-57
2022/02/16 09:09:59;;;;;;;;;;;;;;;9.45;57.09;100872.00;117440;1181;22597;-57
2022/02/16 09:12:28;;;;;;;;;;;;;;;9.47;57.25;100866.76;117388;1182;23516;-58
2022/02/16 09:14:56;;;;;;;;;;;;;;;9.48;57.31;100866.75;117388;1183;21838;-58
2022/02/16 09:17:24;;;;;;;;;;;;;;;9.49;57.24;100866.39;117325;1186;23518;-57
2022/02/16 09:19:56;;;;;;;;;;;;;;;9.49;57.23;100858.85;117324;1182;22647;-57
2022/02/16 09:22:25;;;;;;;;;;;;;;;9.50;57.42;100850.10;117366;1182;23438;-57
2022/02/16 09:24:53;;;;;;;;;;;;;;;9.55;57.53;100850.45;117246;1186;23528;-57
2022/02/16 09:27:21;;;;;;;;;;;;;;;9.61;57.50;100847.47;117383;1185;21839;-57
2022/02/16 09:29:52;;;;;;;;;;;;;;;9.66;57.54;100845.70;117353;1186;22650;-58
2022/02/16 09:32:21;;;;;;;;;;;;;;;9.72;57.45;100844.83;117369;1186;23207;-58
2022/02/16 09:34:51;;;;;;;;;;;;;;;9.78;57.63;100844.64;117392;1183;21839;-59
2022/02/16 09:37:19;;;;;;;;;;;;;;;9.82;57.56;100839.90;117404;1182;23188;-58
2022/02/16 09:39:47;;;;;;;;;;;;;;;9.90;57.50;100835.33;117368;1186;21842;-59
2022/02/16 09:42:15;;;;;;;;;;;;;;;10.00;57.66;100831.98;117331;1182;21866;-58
2022/02/16 09:44:45;;;;;;;;;;;;;;;10.10;57.59;100830.71;117420;1183;21848;-58
2022/02/16 09:47:13;;;;;;;;;;;;;;;10.20;57.67;100833.13;117375;1183;21834;-57
2022/02/16 09:49:41;;;;;;;;;;;;;;;10.26;57.65;100830.85;117379;1186;21836;-59
2022/02/16 09:52:10;;;;;;;;;;;;;;;10.29;57.50;100826.80;117358;1185;21828;-60
2022/02/16 09:54:38;;;;;;;;;;;;;;;10.33;57.35;100822.39;117422;1186;23416;-58
2022/02/16 09:57:06;;;;;;;;;;;;;;;10.39;57.42;100818.16;117358;1185;23445;-59
2022/02/16 09:59:34;;;;;;;;;;;;;;;10.45;57.38;100811.48;117331;1185;23448;-57
2022/02/16 10:02:07;;;;;;;;;;;;;;;10.48;57.50;100807.98;117408;1183;21839;-59
2022/02/16 10:04:36;;;;;;;;;;;;;;;10.55;57.74;100803.38;117419;1186;22598;-57
2022/02/16 10:07:21;;;;;;;;;;;;;;;10.66;57.71;100796.64;117405;1183;22669;-57
2022/02/16 10:09:49;;;;;;;;;;;;;;;10.79;57.71;100796.38;117405;1183;21836;-57
2022/02/16 10:12:18;;;;;;;;;;;;;;;10.93;57.63;100801.21;117466;1185;23416;-57
2022/02/16 10:14:46;;;;;;;;;;;;;;;11.00;57.50;100795.37;117339;1183;23443;-58
2022/02/16 10:17:21;;;;;;;;;;;;;;;11.03;57.45;100792.54;117348;1182;21843;-59
2022/02/16 10:19:54;;;;;;;;;;;;;;;11.03;57.29;100793.77;117450;1186;21842;-57
2022/02/16 10:22:40;;;;;;;;;;;;;;;11.03;57.16;100785.52;117441;1183;22938;-57
2022/02/16 10:25:08;;;;;;;;;;;;;;;11.01;57.24;100781.85;117352;1183;21835;-59
2022/02/16 10:27:36;;;;;;;;;;;;;;;11.02;57.46;100779.02;117444;1183;21841;-60
2022/02/16 10:30:10;;;;;;;;;;;;;;;11.04;57.39;100774.98;117394;1183;21845;-58
2022/02/16 10:32:38;;;;;;;;;;;;;;;11.10;57.43;100770.88;117417;1186;21839;-58
2022/02/16 10:35:09;;;;;;;;;;;;;;;11.16;57.39;100769.77;117375;1185;23542;-60
2022/02/16 10:37:39;;;;;;;;;;;;;;;11.18;57.33;100767.14;117355;1182;22831;-57
2022/02/16 10:40:11;;;;;;;;;;;;;;;11.21;57.39;100757.63;117387;1186;21838;-58
2022/02/16 10:42:52;;;;;;;;;;;;;;;11.27;57.39;100758.61;117382;1188;21838;-59
2022/02/16 10:45:21;;;;;;;;;;;;;;;11.37;57.32;100749.04;117328;1176;22909;-59
2022/02/16 10:48:02;;;;;;;;;;;;;;;11.45;57.52;100747.21;117433;1186;23528;-57
2022/02/16 10:50:37;;;;;;;;;;;;;;;11.57;57.70;100747.61;117411;1183;22342;-58
2022/02/16 10:53:06;;;;;;;;;;;;;;;11.63;57.54;100745.96;117361;1186;21850;-58
2022/02/16 10:55:38;;;;;;;;;;;;;;;11.70;57.61;100740.80;117368;1185;21846;-58
2022/02/16 10:58:06;;;;;;;;;;;;;;;11.78;57.46;100736.48;117374;1182;21916;-60
2022/02/16 11:00:37;;;;;;;;;;;;;;;11.91;57.42;100727.02;117361;1185;23439;-57
2022/02/16 11:03:05;;;;;;;;;;;;;;;12.02;57.58;100725.48;117421;1189;21845;-60
2022/02/16 11:05:37;;;;;;;;;;;;;;;12.15;57.58;100713.53;117394;1185;21884;-58
2022/02/16 11:08:06;;;;;;;;;;;;;;;12.26;57.32;100714.63;117466;1181;22892;-59
2022/02/16 11:10:35;;;;;;;;;;;;;;;12.34;57.65;100708.18;117395;1182;22303;-58
2022/02/16 11:13:03;;;;;;;;;;;;;;;12.46;57.57;100703.25;117347;1183;21835;-58
2022/02/16 11:15:31;;;;;;;;;;;;;;;12.59;57.70;100689.33;116992;1186;21961;-57
2022/02/16 11:18:12;;;;;;;;;;;;;;;12.72;57.70;100691.94;118620;1185;22661;-59
2022/02/16 11:20:40;;;;;;;;;;;;;;;12.77;57.51;100692.40;117336;1185;22143;-60
2022/02/16 11:23:09;;;;;;;;;;;;;;;12.79;57.37;100684.09;117346;1185;21990;-59
2022/02/16 11:25:40;;;;;;;;;;;;;;;12.83;57.37;100683.48;117423;1183;21847;-58
2022/02/16 11:28:11;;;;;;;;;;;;;;;12.97;57.41;100681.15;117477;1185;21846;-59
2022/02/16 11:30:47;;;;;;;;;;;;;;;13.16;57.51;100675.86;117362;1183;21832;-58
2022/02/16 11:33:15;;;;;;;;;;;;;;;13.28;57.54;100677.40;117393;1185;21877;-58
2022/02/16 11:35:46;;;;;;;;;;;;;;;13.36;57.35;100668.27;117410;1186;21838;-59
2022/02/16 11:38:15;;;;;;;;;;;;;;;13.47;57.30;100667.23;117349;1186;21891;-59
2022/02/16 11:40:48;;;;;;;;;;;;;;;13.53;57.28;100662.69;117361;1186;22947;-60
2022/02/16 11:43:17;;;;;;;;;;;;;;;13.63;57.25;100658.27;117431;1185;21839;-59
2022/02/16 11:45:50;;;;;;;;;;;;;;;13.69;57.20;100651.45;117319;1183;21851;-60
2022/02/16 11:48:37;;;;;;;;;;;;;;;13.76;57.34;100645.65;117328;1183;21849;-60
2022/02/16 11:51:37;;;;;;;;;;;;;;;13.86;57.30;100642.79;117365;1186;21835;-60
2022/02/16 11:54:24;;;;;;;;;;;;;;;13.93;57.31;100638.58;117079;1186;21839;-60
2022/02/16 11:56:53;;;;;;;;;;;;;;;14.02;57.24;100629.20;116974;1188;23430;-60
2022/02/16 11:59:23;;;;;;;;;;;;;;;14.19;57.47;100626.70;117146;1186;21868;-60
2022/02/16 12:02:07;;;;;;;;;;;;;;;14.36;57.41;100622.95;117123;1188;21842;-59
2022/02/16 12:04:54;;;;;;;;;;;;;;;14.40;56.90;100619.84;117088;1185;23453;-59
2022/02/16 12:07:23;;;;;;;;;;;;;;;14.32;56.70;100618.63;117217;1188;21842;-60
2022/02/16 12:10:10;;;;;;;;;;;;;;;14.29;56.80;100612.34;117093;1186;22614;-58
2022/02/16 12:12:38;;;;;;;;;;;;;;;14.28;56.93;100612.73;117030;1186;21854;-58
2022/02/16 12:15:26;;;;;;;;;;;;;;;14.40;57.04;100609.26;117055;1186;23416;-58
2022/02/16 12:17:56;;;;;;;;;;;;;;;14.46;56.95;100602.23;116983;1186;22603;-58
2022/02/16 12:20:24;;;;;;;;;;;;;;;14.44;56.82;100601.58;116906;1186;23603;-58
2022/02/16 12:22:53;;;;;;;;;;;;;;;14.43;56.66;100594.89;117059;1189;21944;-59
2022/02/16 12:25:21;;;;;;;;;;;;;;;14.38;56.62;100595.73;116947;1185;23431;-59
2022/02/16 12:27:49;;;;;;;;;;;;;;;14.31;56.47;100597.66;117244;1183;22825;-58
2022/02/16 12:30:17;;;;;;;;;;;;;;;14.22;56.51;100595.39;117228;1185;22626;-58
2022/02/16 12:32:50;;;;;;;;;;;;;;;14.20;56.57;100598.08;117336;1185;24125;-59
2022/02/16 12:35:19;;;;;;;;;;;;;;;14.14;56.40;100593.46;117394;1182;23807;-59
2022/02/16 12:37:46;;;;;;;;;;;;;;;14.00;56.19;100585.67;117371;1185;21973;-59
2022/02/16 12:40:15;;;;;;;;;;;;;;;13.88;56.30;100582.77;117393;1183;21848;-59
2022/02/16 12:42:45;;;;;;;;;;;;;;;13.81;56.36;100585.73;117433;1183;22959;-59
2022/02/16 12:45:24;;;;;;;;;;;;;;;13.74;56.39;100579.20;117353;1185;24140;-59
2022/02/16 12:47:58;;;;;;;;;;;;;;;13.67;56.40;100574.60;117449;1185;24189;-58